createdAt,value
2022-09-11T00:00:51.402Z,15.56
2022-09-11T00:03:19.805Z,15.58
2022-09-11T00:05:46.542Z,15.58
2022-09-11T00:08:16.855Z,15.53
2022-09-11T00:10:44.107Z,15.45
2022-09-11T00:13:14.241Z,15.46
2022-09-11T00:15:42.761Z,15.44
2022-09-11T00:18:13.416Z,15.43
2022-09-11T00:20:40.127Z,15.45
2022-09-11T00:23:06.528Z,15.46
2022-09-11T00:25:37.724Z,15.49
2022-09-11T00:28:04.136Z,15.49
2022-09-11T00:30:30.972Z,15.51
2022-09-11T00:32:57.791Z,15.52
2022-09-11T00:35:24.650Z,15.51
2022-09-11T00:37:51.607Z,15.45
2022-09-11T00:40:18.972Z,15.44
2022-09-11T00:42:45.431Z,15.47
2022-09-11T00:45:28.603Z,15.49
2022-09-11T00:47:59.108Z,15.49
2022-09-11T00:50:28.819Z,15.55
2022-09-11T00:53:00.473Z,15.58
2022-09-11T00:55:32.206Z,15.58
2022-09-11T00:58:03.655Z,15.56
2022-09-11T01:00:30.628Z,15.54
2022-09-11T01:02:57.759Z,15.46
2022-09-11T01:05:27.695Z,15.35
2022-09-11T01:07:55.937Z,15.30
2022-09-11T01:10:30.748Z,15.28
2022-09-11T01:13:19.679Z,15.29
2022-09-11T01:15:51.216Z,15.30
2022-09-11T01:18:23.689Z,15.38
2022-09-11T01:21:11.574Z,15.44
2022-09-11T01:24:05.205Z,15.49
2022-09-11T01:26:47.783Z,15.53
2022-09-11T01:29:22.042Z,15.60
2022-09-11T01:32:04.456Z,15.63
2022-09-11T01:34:55.942Z,15.63
2022-09-11T01:37:31.202Z,15.66
2022-09-11T01:40:03.584Z,15.67
2022-09-11T01:42:34.048Z,15.66
2022-09-11T01:45:01.492Z,15.66
2022-09-11T01:47:30.016Z,15.64
2022-09-11T01:50:02.994Z,15.65
2022-09-11T01:52:35.522Z,15.65
2022-09-11T01:55:12.750Z,15.68
2022-09-11T01:57:47.780Z,15.69
2022-09-11T02:00:15.281Z,15.70
2022-09-11T02:03:10.671Z,15.72
2022-09-11T02:05:51.965Z,15.74
2022-09-11T02:08:42.266Z,15.74
2022-09-11T02:11:12.690Z,15.75
2022-09-11T02:14:23.670Z,15.76
2022-09-11T02:16:53.618Z,15.76
2022-09-11T02:19:26.124Z,15.75
2022-09-11T02:21:52.871Z,15.75
2022-09-11T02:24:20.333Z,15.75
2022-09-11T02:26:51.459Z,15.78
2022-09-11T02:29:17.997Z,15.79
2022-09-11T02:31:45.593Z,15.78
2022-09-11T02:34:14.325Z,15.77
2022-09-11T02:36:58.893Z,15.77
2022-09-11T02:39:56.388Z,15.76
2022-09-11T02:42:41.622Z,15.76
2022-09-11T02:45:47.998Z,15.78
2022-09-11T02:48:29.733Z,15.79
2022-09-11T02:51:04.346Z,15.78
2022-09-11T02:53:47.697Z,15.77
2022-09-11T02:56:46.388Z,15.69
2022-09-11T02:59:27.195Z,15.66
2022-09-11T03:01:56.096Z,15.66
2022-09-11T03:04:24.626Z,15.67
2022-09-11T03:06:52.795Z,15.68
2022-09-11T03:09:20.240Z,15.68
2022-09-11T03:11:46.924Z,15.67
2022-09-11T03:14:14.340Z,15.64
2022-09-11T03:16:41.536Z,15.60
2022-09-11T03:19:08.068Z,15.64
2022-09-11T03:21:35.045Z,15.62
2022-09-11T03:24:01.944Z,15.58
2022-09-11T03:26:29.439Z,15.53
2022-09-11T03:28:56.025Z,15.58
2022-09-11T03:31:22.473Z,15.55
2022-09-11T03:33:48.989Z,15.55
2022-09-11T03:36:15.585Z,15.59
2022-09-11T03:38:41.959Z,15.61
2022-09-11T03:41:09.552Z,15.64
2022-09-11T03:43:35.996Z,15.62
2022-09-11T03:46:03.107Z,15.60
2022-09-11T03:48:29.715Z,15.59
2022-09-11T03:50:56.431Z,15.62
2022-09-11T03:53:22.885Z,15.60
2022-09-11T03:55:52.155Z,15.61
2022-09-11T03:58:21.495Z,15.61
2022-09-11T04:00:48.173Z,15.57
2022-09-11T04:03:16.029Z,15.59
2022-09-11T04:05:46.447Z,15.61
2022-09-11T04:08:13.213Z,15.56
2022-09-11T04:10:39.689Z,15.52
2022-09-11T04:13:06.117Z,15.53
2022-09-11T04:15:32.878Z,15.52
2022-09-11T04:18:03.456Z,15.54
2022-09-11T04:20:32.027Z,15.57
2022-09-11T04:22:58.889Z,15.59
2022-09-11T04:25:25.589Z,15.62
2022-09-11T04:27:52.001Z,15.57
2022-09-11T04:30:19.830Z,15.60
2022-09-11T04:32:46.273Z,15.61
2022-09-11T04:35:12.739Z,15.55
2022-09-11T04:37:39.138Z,15.55
2022-09-11T04:40:06.179Z,15.50
2022-09-11T04:42:32.607Z,15.54
2022-09-11T04:44:59.019Z,15.52
2022-09-11T04:47:25.403Z,15.52
2022-09-11T04:49:52.734Z,15.52
2022-09-11T04:52:19.391Z,15.51
2022-09-11T04:54:46.452Z,15.49
2022-09-11T04:57:14.319Z,15.48
2022-09-11T04:59:40.700Z,15.49
2022-09-11T05:02:07.190Z,15.49
2022-09-11T05:04:33.639Z,15.47
2022-09-11T05:07:00.323Z,15.45
2022-09-11T05:09:27.732Z,15.46
2022-09-11T05:11:54.480Z,15.52
2022-09-11T05:14:20.945Z,15.54
2022-09-11T05:16:47.536Z,15.51
2022-09-11T05:19:14.096Z,15.50
2022-09-11T05:21:41.457Z,15.44
2022-09-11T05:24:08.107Z,15.39
2022-09-11T05:26:37.306Z,15.38
2022-09-11T05:29:09.649Z,15.32
2022-09-11T05:31:37.158Z,15.34
2022-09-11T05:34:03.781Z,15.32
2022-09-11T05:36:33.499Z,15.31
2022-09-11T05:39:00.319Z,15.29
2022-09-11T05:41:27.186Z,15.34
2022-09-11T05:43:54.631Z,15.35
2022-09-11T05:46:21.852Z,15.40
2022-09-11T05:48:48.342Z,15.44
2022-09-11T05:51:16.953Z,15.43
2022-09-11T05:53:43.473Z,15.41
2022-09-11T05:56:13.774Z,15.46
2022-09-11T05:58:40.359Z,15.46
2022-09-11T06:01:21.537Z,15.45
2022-09-11T06:03:49.459Z,15.44
2022-09-11T06:06:17.794Z,15.38
2022-09-11T06:08:44.639Z,15.27
2022-09-11T06:11:13.831Z,15.29
2022-09-11T06:13:43.062Z,15.35
2022-09-11T06:16:14.650Z,15.41
2022-09-11T06:18:44.959Z,15.43
2022-09-11T06:21:12.785Z,15.36
2022-09-11T06:23:42.275Z,15.41
2022-09-11T06:26:11.225Z,15.44
2022-09-11T06:28:39.991Z,15.43
2022-09-11T06:31:18.052Z,15.46
2022-09-11T06:33:45.548Z,15.49
2022-09-11T06:36:14.695Z,15.47
2022-09-11T06:38:41.492Z,15.46
2022-09-11T06:41:11.820Z,15.47
2022-09-11T06:43:38.583Z,15.46
2022-09-11T06:46:19.912Z,15.49
2022-09-11T06:48:48.231Z,15.50
2022-09-11T06:51:17.479Z,15.49
2022-09-11T06:53:44.402Z,15.44
2022-09-11T06:56:17.009Z,15.38
2022-09-11T06:58:45.177Z,15.41
2022-09-11T07:01:22.364Z,15.42
2022-09-11T07:03:50.865Z,15.46
2022-09-11T07:06:22.805Z,15.50
2022-09-11T07:08:55.829Z,15.52
2022-09-11T07:11:22.681Z,15.54
2022-09-11T07:13:49.155Z,15.58
2022-09-11T07:16:16.341Z,15.46
2022-09-11T07:18:44.766Z,15.46
2022-09-11T07:21:23.641Z,15.45
2022-09-11T07:23:54.411Z,15.47
2022-09-11T07:26:22.843Z,15.39
2022-09-11T07:28:51.475Z,15.40
2022-09-11T07:31:21.264Z,15.42
2022-09-11T07:33:49.809Z,15.48
2022-09-11T07:36:25.064Z,15.49
2022-09-11T07:38:51.985Z,15.51
2022-09-11T07:41:20.188Z,15.52
2022-09-11T07:43:46.941Z,15.53
2022-09-11T07:46:14.724Z,15.52
2022-09-11T07:48:42.947Z,15.51
2022-09-11T07:51:15.142Z,15.48
2022-09-11T07:53:44.056Z,15.50
2022-09-11T07:56:24.926Z,15.44
2022-09-11T07:58:53.735Z,15.44
2022-09-11T08:01:22.814Z,15.43
2022-09-11T08:03:54.738Z,15.44
2022-09-11T08:06:22.506Z,15.48
2022-09-11T08:08:54.245Z,15.54
2022-09-11T08:11:21.619Z,15.53
2022-09-11T08:13:52.846Z,15.58
2022-09-11T08:16:26.075Z,15.64
2022-09-11T08:18:53.351Z,15.60
2022-09-11T08:21:20.481Z,15.60
2022-09-11T08:23:47.317Z,15.55
2022-09-11T08:26:17.200Z,15.57
2022-09-11T08:28:44.968Z,15.58
2022-09-11T08:31:13.201Z,15.57
2022-09-11T08:33:40.418Z,15.51
2022-09-11T08:36:09.852Z,15.52
2022-09-11T08:38:37.846Z,15.51
2022-09-11T08:41:11.123Z,15.49
2022-09-11T08:43:50.763Z,15.38
2022-09-11T08:46:21.528Z,15.41
2022-09-11T08:49:22.796Z,15.42
2022-09-11T08:51:51.419Z,15.49
2022-09-11T08:54:33.923Z,15.52
2022-09-11T08:57:22.139Z,15.60
2022-09-11T09:00:08.762Z,15.60
2022-09-11T09:02:35.139Z,15.53
2022-09-11T09:05:20.417Z,15.57
2022-09-11T09:08:14.774Z,15.61
2022-09-11T09:10:57.968Z,15.62
2022-09-11T09:14:13.120Z,15.58
2022-09-11T09:16:55.006Z,15.67
2022-09-11T09:19:38.919Z,15.81
2022-09-11T09:22:17.879Z,15.70
2022-09-11T09:24:54.560Z,15.75
2022-09-11T09:27:36.558Z,15.78
2022-09-11T09:30:06.487Z,15.88
2022-09-11T09:32:42.146Z,15.91
2022-09-11T09:35:29.071Z,15.94
2022-09-11T09:37:55.517Z,16.03
2022-09-11T09:40:26.013Z,15.99
2022-09-11T09:43:07.783Z,16.09
2022-09-11T09:46:21.065Z,16.21
2022-09-11T09:48:47.778Z,16.27
2022-09-11T09:51:15.104Z,16.26
2022-09-11T09:53:44.464Z,16.18
2022-09-11T09:56:16.317Z,16.17
2022-09-11T09:58:50.424Z,16.24
2022-09-11T10:01:55.077Z,16.32
2022-09-11T10:04:27.217Z,16.26
2022-09-11T10:07:06.968Z,16.31
2022-09-11T10:09:33.891Z,16.34
2022-09-11T10:12:04.097Z,16.34
2022-09-11T10:14:51.591Z,16.40
2022-09-11T10:17:33.258Z,16.44
2022-09-11T10:20:25.877Z,16.40
2022-09-11T10:22:55.551Z,16.37
2022-09-11T10:25:30.082Z,16.39
2022-09-11T10:28:09.016Z,16.29
2022-09-11T10:30:40.291Z,16.24
2022-09-11T10:33:27.103Z,16.35
2022-09-11T10:35:55.475Z,16.34
2022-09-11T10:38:45.751Z,16.42
2022-09-11T10:41:12.551Z,16.37
2022-09-11T10:44:04.137Z,16.41
2022-09-11T10:46:40.860Z,16.45
2022-09-11T10:49:23.750Z,16.44
2022-09-11T10:52:17.203Z,16.57
2022-09-11T10:55:17.456Z,16.67
2022-09-11T10:57:55.967Z,16.72
2022-09-11T11:00:30.535Z,16.77
2022-09-11T11:03:12.481Z,16.87
2022-09-11T11:05:48.184Z,16.84
2022-09-11T11:08:34.522Z,16.83
2022-09-11T11:11:24.182Z,16.83
2022-09-11T11:14:04.448Z,16.73
2022-09-11T11:16:56.600Z,16.81
2022-09-11T11:19:48.688Z,16.89
2022-09-11T11:22:54.144Z,16.88
2022-09-11T11:25:42.154Z,16.84
2022-09-11T11:28:34.021Z,16.87
2022-09-11T11:31:06.573Z,16.91
2022-09-11T11:34:16.110Z,16.94
2022-09-11T11:36:53.446Z,16.97
2022-09-11T11:39:47.013Z,17.00
2022-09-11T11:42:21.910Z,17.03
2022-09-11T11:44:54.289Z,17.18
2022-09-11T11:47:29.276Z,17.28
2022-09-11T11:50:13.916Z,17.40
2022-09-11T11:52:56.330Z,17.51
2022-09-11T11:55:32.383Z,17.58
2022-09-11T11:58:12.624Z,17.61
2022-09-11T12:00:44.266Z,17.59
2022-09-11T12:03:23.750Z,17.62
2022-09-11T12:05:50.235Z,17.67
2022-09-11T12:08:17.227Z,17.68
2022-09-11T12:10:56.349Z,17.74
2022-09-11T12:13:29.328Z,17.83
2022-09-11T12:16:20.180Z,17.99
2022-09-11T12:19:14.619Z,18.11
2022-09-11T12:22:02.396Z,18.25
2022-09-11T12:24:58.548Z,18.12
2022-09-11T12:27:37.298Z,18.08
2022-09-11T12:30:21.758Z,18.00
2022-09-11T12:32:57.103Z,18.10
2022-09-11T12:35:29.006Z,18.17
2022-09-11T12:38:24.751Z,18.45
2022-09-11T12:40:56.448Z,18.68
2022-09-11T12:43:35.193Z,18.90
2022-09-11T12:46:13.723Z,19.10
2022-09-11T12:49:00.317Z,19.24
2022-09-11T12:51:38.900Z,19.31
2022-09-11T12:54:16.063Z,19.51
2022-09-11T12:57:19.140Z,19.43
2022-09-11T12:59:53.478Z,19.52
2022-09-11T13:02:26.331Z,19.46
2022-09-11T13:04:54.795Z,19.34
2022-09-11T13:07:41.297Z,19.33
2022-09-11T13:10:20.228Z,19.37
2022-09-11T13:12:52.975Z,19.37
2022-09-11T13:15:33.841Z,19.41
2022-09-11T13:18:00.409Z,19.25
2022-09-11T13:20:27.105Z,19.15
2022-09-11T13:22:58.146Z,19.18
2022-09-11T13:25:27.970Z,19.20
2022-09-11T13:28:01.333Z,19.12
2022-09-11T13:30:28.121Z,19.09
2022-09-11T13:33:06.729Z,19.03
2022-09-11T13:35:34.199Z,19.02
2022-09-11T13:38:13.013Z,18.99
2022-09-11T13:40:59.709Z,18.99
2022-09-11T13:43:48.961Z,18.86
2022-09-11T13:46:15.453Z,18.84
2022-09-11T13:48:43.491Z,18.80
2022-09-11T13:51:46.661Z,18.64
2022-09-11T13:54:17.042Z,18.70
2022-09-11T13:56:55.775Z,18.64
2022-09-11T13:59:27.406Z,18.57
2022-09-11T14:02:00.890Z,18.55
2022-09-11T14:04:29.523Z,18.46
2022-09-11T14:06:56.141Z,18.58
2022-09-11T14:09:23.011Z,18.73
2022-09-11T14:11:50.006Z,18.75
2022-09-11T14:14:26.267Z,18.64
2022-09-11T14:16:59.046Z,18.60
2022-09-11T14:19:30.167Z,18.50
2022-09-11T14:21:57.145Z,18.43
2022-09-11T14:24:29.209Z,18.45
2022-09-11T14:26:58.789Z,18.43
2022-09-11T14:29:33.153Z,18.43
2022-09-11T14:32:27.677Z,18.41
2022-09-11T14:34:54.200Z,18.39
2022-09-11T14:37:21.472Z,18.30
2022-09-11T14:39:54.802Z,18.38
2022-09-11T14:42:24.485Z,18.54
2022-09-11T14:44:51.387Z,18.48
2022-09-11T14:47:20.675Z,18.46
2022-09-11T14:49:48.037Z,18.49
2022-09-11T14:52:17.276Z,18.52
2022-09-11T14:54:44.676Z,18.49
2022-09-11T14:57:27.035Z,18.36
2022-09-11T14:59:53.469Z,18.25
2022-09-11T15:02:25.270Z,18.33
2022-09-11T15:04:54.035Z,18.33
2022-09-11T15:07:24.339Z,18.30
2022-09-11T15:09:52.693Z,18.35
2022-09-11T15:12:19.386Z,18.43
2022-09-11T15:14:56.561Z,18.37
2022-09-11T15:17:25.187Z,18.48
2022-09-11T15:19:52.586Z,18.40
2022-09-11T15:22:19.607Z,18.37
2022-09-11T15:24:47.014Z,18.27
2022-09-11T15:27:14.899Z,18.19
2022-09-11T15:29:42.467Z,18.11
2022-09-11T15:32:09.794Z,18.01
2022-09-11T15:34:38.558Z,17.99
2022-09-11T15:37:05.743Z,18.19
2022-09-11T15:39:33.777Z,18.39
2022-09-11T15:42:01.685Z,18.47
2022-09-11T15:44:31.422Z,18.47
2022-09-11T15:46:59.098Z,18.46
2022-09-11T15:49:28.365Z,18.44
2022-09-11T15:51:55.907Z,18.39
2022-09-11T15:54:23.416Z,18.38
2022-09-11T15:56:51.244Z,18.38
2022-09-11T15:59:18.020Z,18.45
2022-09-11T16:01:45.280Z,18.44
2022-09-11T16:04:14.963Z,18.47
2022-09-11T16:06:43.775Z,18.49
2022-09-11T16:09:17.157Z,18.50
2022-09-11T16:11:43.840Z,18.50
2022-09-11T16:14:23.238Z,18.53
2022-09-11T16:16:51.118Z,18.45
2022-09-11T16:19:20.427Z,18.51
2022-09-11T16:21:49.336Z,18.54
2022-09-11T16:24:16.663Z,18.54
2022-09-11T16:26:44.165Z,18.55
2022-09-11T16:29:14.527Z,18.64
2022-09-11T16:31:42.415Z,18.69
2022-09-11T16:34:09.412Z,18.64
2022-09-11T16:36:38.710Z,18.72
2022-09-11T16:39:14.586Z,18.70
2022-09-11T16:41:41.635Z,18.64
2022-09-11T16:44:12.277Z,18.59
2022-09-11T16:46:40.595Z,18.49
2022-09-11T16:49:07.520Z,18.38
2022-09-11T16:51:34.403Z,18.35
2022-09-11T16:54:03.472Z,18.32
2022-09-11T16:56:30.213Z,18.25
2022-09-11T16:58:56.756Z,18.23
2022-09-11T17:01:26.154Z,18.21
2022-09-11T17:03:54.894Z,18.16
2022-09-11T17:06:23.270Z,18.13
2022-09-11T17:08:51.009Z,18.10
2022-09-11T17:11:19.672Z,18.07
2022-09-11T17:13:46.799Z,18.05
2022-09-11T17:16:16.890Z,18.03
2022-09-11T17:18:53.482Z,18.04
2022-09-11T17:21:24.053Z,17.98
2022-09-11T17:23:52.726Z,18.00
2022-09-11T17:26:19.283Z,17.99
2022-09-11T17:28:47.574Z,17.99
2022-09-11T17:31:15.735Z,17.98
2022-09-11T17:33:43.357Z,17.96
2022-09-11T17:36:12.182Z,17.92
2022-09-11T17:38:40.986Z,17.90
2022-09-11T17:41:08.886Z,17.86
2022-09-11T17:43:36.555Z,17.80
2022-09-11T17:46:05.562Z,17.71
2022-09-11T17:48:32.688Z,17.65
2022-09-11T17:51:05.407Z,17.61
2022-09-11T17:53:38.654Z,17.57
2022-09-11T17:56:09.832Z,17.49
2022-09-11T17:58:37.024Z,17.42
2022-09-11T18:01:05.470Z,17.43
2022-09-11T18:03:33.417Z,17.41
2022-09-11T18:06:01.340Z,17.37
2022-09-11T18:08:29.740Z,17.28
2022-09-11T18:11:00.033Z,17.17
2022-09-11T18:13:27.784Z,17.17
2022-09-11T18:15:54.898Z,17.15
2022-09-11T18:18:21.972Z,17.10
2022-09-11T18:20:49.393Z,17.08
2022-09-11T18:23:16.811Z,17.10
2022-09-11T18:25:43.605Z,17.08
2022-09-11T18:28:11.535Z,17.10
2022-09-11T18:30:41.262Z,17.04
2022-09-11T18:33:10.906Z,16.94
2022-09-11T18:35:39.119Z,16.97
2022-09-11T18:38:06.542Z,16.91
2022-09-11T18:40:33.705Z,16.88
2022-09-11T18:43:00.239Z,16.86
2022-09-11T18:45:35.648Z,16.76
2022-09-11T18:48:03.835Z,16.65
2022-09-11T18:50:30.467Z,16.67
2022-09-11T18:52:57.011Z,16.65
2022-09-11T18:55:23.845Z,16.61
2022-09-11T18:57:51.191Z,16.52
2022-09-11T19:00:18.752Z,16.56
2022-09-11T19:02:46.787Z,16.58
2022-09-11T19:05:15.570Z,16.59
2022-09-11T19:07:47.336Z,16.49
2022-09-11T19:10:14.557Z,16.47
2022-09-11T19:12:41.419Z,16.34
2022-09-11T19:15:09.473Z,16.29
2022-09-11T19:17:37.696Z,16.10
2022-09-11T19:20:08.197Z,16.07
2022-09-11T19:22:34.984Z,16.19
2022-09-11T19:25:01.946Z,16.18
2022-09-11T19:27:31.687Z,16.16
2022-09-11T19:29:59.963Z,16.21
2022-09-11T19:32:28.119Z,16.25
2022-09-11T19:34:54.935Z,16.25
2022-09-11T19:37:21.645Z,16.26
2022-09-11T19:39:52.052Z,16.24
2022-09-11T19:42:18.652Z,16.13
2022-09-11T19:44:45.513Z,16.00
2022-09-11T19:47:12.067Z,16.01
2022-09-11T19:49:38.571Z,15.96
2022-09-11T19:52:05.841Z,15.93
2022-09-11T19:54:34.688Z,15.79
2022-09-11T19:57:02.546Z,15.87
2022-09-11T19:59:29.417Z,15.83
2022-09-11T20:01:56.175Z,15.79
2022-09-11T20:04:22.937Z,15.59
2022-09-11T20:09:32.135Z,15.60
2022-09-11T20:12:00.829Z,15.62
2022-09-11T20:14:27.930Z,15.58
2022-09-11T20:16:54.830Z,15.63
2022-09-11T20:19:21.485Z,15.55
2022-09-11T20:21:48.223Z,15.64
2022-09-11T20:24:15.369Z,15.51
2022-09-11T20:26:42.216Z,15.47
2022-09-11T20:29:13.587Z,15.49
2022-09-11T20:31:47.101Z,15.46
2022-09-11T20:34:15.140Z,15.52
2022-09-11T20:36:41.921Z,15.41
2022-09-11T20:39:12.942Z,15.31
2022-09-11T20:41:39.511Z,15.34
2022-09-11T20:44:06.029Z,15.41
2022-09-11T20:46:32.602Z,15.45
2022-09-11T20:49:00.719Z,15.41
2022-09-11T20:51:27.714Z,15.37
2022-09-11T20:53:55.143Z,15.32
2022-09-11T20:56:24.968Z,15.39
2022-09-11T20:58:52.122Z,15.38
2022-09-11T21:01:21.827Z,15.37
2022-09-11T21:03:50.931Z,15.32
2022-09-11T21:06:20.989Z,15.36
2022-09-11T21:08:55.297Z,15.28
2022-09-11T21:11:22.479Z,15.31
2022-09-11T21:13:49.032Z,15.33
2022-09-11T21:16:16.411Z,15.36
2022-09-11T21:18:51.635Z,15.35
2022-09-11T21:21:19.988Z,15.35
2022-09-11T21:23:46.669Z,15.36
2022-09-11T21:26:15.379Z,15.28
2022-09-11T21:28:42.026Z,15.19
2022-09-11T21:31:09.364Z,15.27
2022-09-11T21:33:36.883Z,15.24
2022-09-11T21:36:04.468Z,15.26
2022-09-11T21:38:31.015Z,15.25
2022-09-11T21:40:59.942Z,15.16
2022-09-11T21:43:27.782Z,15.05
2022-09-11T21:45:54.413Z,15.00
2022-09-11T21:48:20.871Z,14.95
2022-09-11T21:50:47.418Z,14.92
2022-09-11T21:53:14.315Z,14.92
2022-09-11T21:55:43.113Z,14.89
2022-09-11T21:58:15.205Z,15.01
2022-09-11T22:00:43.158Z,15.04
2022-09-11T22:03:12.230Z,14.99
2022-09-11T22:05:43.286Z,14.97
2022-09-11T22:08:10.855Z,14.86
2022-09-11T22:10:50.935Z,14.80
2022-09-11T22:13:20.388Z,14.74
2022-09-11T22:15:49.780Z,14.76
2022-09-11T22:18:17.580Z,14.70
2022-09-11T22:20:44.788Z,14.70
2022-09-11T22:23:22.821Z,14.69
2022-09-11T22:26:10.776Z,14.76
2022-09-11T22:28:38.451Z,14.65
2022-09-11T22:31:13.346Z,14.62
2022-09-11T22:33:41.067Z,14.52
2022-09-11T22:36:10.140Z,14.56
2022-09-11T22:38:36.524Z,14.55
2022-09-11T22:41:03.046Z,14.49
2022-09-11T22:43:29.489Z,14.42
2022-09-11T22:45:56.028Z,14.53
2022-09-11T22:48:22.947Z,14.56
2022-09-11T22:50:49.452Z,14.59
2022-09-11T22:53:15.875Z,14.59
2022-09-11T22:55:46.286Z,14.54
2022-09-11T22:58:13.037Z,14.39
2022-09-11T23:00:40.755Z,14.40
2022-09-11T23:03:07.328Z,14.48
2022-09-11T23:05:52.413Z,14.55
2022-09-11T23:08:19.208Z,14.57
2022-09-11T23:10:46.880Z,14.59
2022-09-11T23:13:14.418Z,14.56
2022-09-11T23:15:40.971Z,14.58
2022-09-11T23:18:07.384Z,14.64
2022-09-11T23:20:33.780Z,14.60
2022-09-11T23:23:02.493Z,14.61
2022-09-11T23:25:28.931Z,14.57
2022-09-11T23:27:55.328Z,14.57
2022-09-11T23:30:21.740Z,14.60
2022-09-11T23:32:48.170Z,14.56
2022-09-11T23:35:14.615Z,14.53
2022-09-11T23:37:44.808Z,14.48
2022-09-11T23:40:11.982Z,14.49
2022-09-11T23:42:38.419Z,14.50
2022-09-11T23:45:07.445Z,14.46
2022-09-11T23:47:33.868Z,14.45
2022-09-11T23:50:00.603Z,14.39
2022-09-11T23:52:27.015Z,14.23
2022-09-11T23:54:53.407Z,14.24
2022-09-11T23:57:19.834Z,14.28
2022-09-11T23:59:46.884Z,14.27
